Time;durP1;ratioP1;P1;durP2;ratioP2;P2;SDS_P1;SDS_P2;PMS_P1;PMS_P2;Temp;Humidity;BMP_temperature;BMP_pressure;BME280_temperature;BME280_humidity;BME280_pressure;Samples;Min_cycle;Max_cycle;Signal;HPM_P1;HPM_P2
2022/10/10 00:01:55;;;;;;;12.37;10.57;;;;;;;16.14;68.42;95362.00;5070860;28;20198;-82
2022/10/10 00:04:22;;;;;;;11.23;10.13;;;;;;;16.12;68.42;95361.38;5070390;28;20205;-80
2022/10/10 00:06:49;;;;;;;11.07;9.87;;;;;;;16.13;68.49;95369.91;5070917;28;20226;-80
2022/10/10 00:09:16;;;;;;;13.23;11.23;;;;;;;16.11;68.44;95370.09;5070317;28;20182;-80
2022/10/10 00:11:42;;;;;;;11.47;10.30;;;;;;;16.03;68.36;95362.31;5070858;28;20202;-83
2022/10/10 00:14:09;;;;;;;11.73;10.20;;;;;;;16.09;68.38;95378.94;5070364;28;20552;-79
2022/10/10 00:16:36;;;;;;;9.83;8.83;;;;;;;16.07;68.47;95381.66;5070945;28;20206;-82
2022/10/10 00:19:04;;;;;;;12.43;10.27;;;;;;;16.06;68.63;95374.88;5070893;28;20202;-79
2022/10/10 00:21:31;;;;;;;12.23;9.80;;;;;;;16.01;68.61;95370.19;5071293;28;20182;-82
2022/10/10 00:23:59;;;;;;;11.77;10.07;;;;;;;16.02;68.72;95366.66;5083158;28;20186;-83
2022/10/10 00:26:26;;;;;;;11.23;10.13;;;;;;;16.01;68.79;95362.44;5079426;28;20230;-81
2022/10/10 00:28:53;;;;;;;10.97;9.87;;;;;;;15.90;68.91;95352.41;5072917;28;20186;-83
2022/10/10 00:31:20;;;;;;;12.20;9.10;;;;;;;15.80;68.73;95338.78;5071217;28;20178;-82
2022/10/10 00:33:46;;;;;;;10.87;9.70;;;;;;;15.97;68.92;95366.28;5070825;28;20186;-83
2022/10/10 00:36:15;;;;;;;10.23;9.13;;;;;;;15.97;68.84;95368.06;5070570;28;20187;-83
2022/10/10 00:38:42;;;;;;;11.00;9.90;;;;;;;15.96;68.83;95369.03;5070628;28;20222;-81
2022/10/10 00:41:09;;;;;;;10.13;8.63;;;;;;;15.94;68.95;95371.78;5072837;28;20771;-82
2022/10/10 00:43:35;;;;;;;11.03;10.03;;;;;;;15.94;68.98;95381.28;5077960;28;20269;-82
2022/10/10 00:46:02;;;;;;;10.50;9.30;;;;;;;15.83;68.93;95353.97;5078811;28;20221;-79
2022/10/10 00:48:33;;;;;;;10.47;9.37;;;;;;;15.91;69.10;95366.91;5084949;28;20194;-80
2022/10/10 00:51:03;;;;;;;10.80;9.70;;;;;;;15.91;69.15;95373.84;5084070;28;20581;-82
2022/10/10 00:53:36;;;;;;;10.97;9.03;;;;;;;15.89;69.02;95373.19;5087839;28;20182;-80
2022/10/10 00:56:04;;;;;;;10.43;9.40;;;;;;;15.87;69.11;95373.34;5087482;28;20182;-80
2022/10/10 00:58:32;;;;;;;10.57;9.47;;;;;;;15.84;69.27;95371.06;5089991;28;20187;-80
2022/10/10 01:00:59;;;;;;;10.23;9.27;;;;;;;15.62;69.39;95335.44;5090544;28;20588;-80
2022/10/10 01:03:26;;;;;;;9.40;8.47;;;;;;;15.80;69.33;95368.00;5089845;28;20201;-79
2022/10/10 01:05:53;;;;;;;10.70;9.63;;;;;;;15.67;69.22;95343.56;5080848;28;20218;-79
2022/10/10 01:08:21;;;;;;;9.20;8.37;;;;;;;15.78;69.36;95366.53;5079385;28;20182;-79
2022/10/10 01:11:05;;;;;;;10.40;9.30;;;;;;;15.77;69.36;95364.91;5073886;28;20182;-81
2022/10/10 01:13:38;;;;;;;10.30;9.20;;;;;;;15.75;69.37;95371.97;5072818;28;20204;-79
2022/10/10 01:16:11;;;;;;;10.63;9.07;;;;;;;15.67;69.42;95364.19;5072161;28;20221;-80
2022/10/10 01:18:49;;;;;;;10.30;8.63;;;;;;;15.65;69.60;95369.50;5071977;28;20225;-82
2022/10/10 01:21:27;;;;;;;10.53;9.43;;;;;;;15.32;69.54;95322.06;5071896;28;20653;-83
2022/10/10 01:24:13;;;;;;;10.43;9.43;;;;;;;15.69;69.67;95375.19;5073456;28;20198;-81
2022/10/10 01:27:07;;;;;;;9.63;8.73;;;;;;;15.69;69.66;95375.19;5074873;28;20210;-79
2022/10/10 01:29:39;;;;;;;9.57;8.67;;;;;;;15.67;69.55;95367.59;5074698;28;20194;-81
2022/10/10 01:32:11;;;;;;;10.63;9.53;;;;;;;15.65;69.71;95374.66;5074511;28;20261;-79
2022/10/10 01:34:46;;;;;;;11.67;10.13;;;;;;;15.66;69.61;95380.63;5073648;28;20587;-80
2022/10/10 01:37:19;;;;;;;10.17;9.17;;;;;;;15.65;69.58;95382.41;5074144;28;20244;-79
2022/10/10 01:39:54;;;;;;;10.53;9.53;;;;;;;15.64;69.76;95387.69;5074030;28;20201;-80
2022/10/10 01:42:29;;;;;;;10.87;9.23;;;;;;;15.62;69.78;95372.34;5074208;28;20197;-80
2022/10/10 01:44:58;;;;;;;9.87;8.87;;;;;;;15.60;69.62;95373.47;5073940;28;20190;-81
2022/10/10 01:47:25;;;;;;;12.07;9.60;;;;;;;15.61;69.78;95370.75;5074348;28;20217;-80
2022/10/10 01:49:56;;;;;;;11.53;9.27;;;;;;;15.48;69.69;95350.53;5074407;28;20198;-82
2022/10/10 01:52:32;;;;;;;9.13;8.23;;;;;;;15.50;69.58;95358.94;5074708;28;20183;-82
2022/10/10 01:55:20;;;;;;;9.53;8.63;;;;;;;15.50;69.75;95366.66;5074278;28;20194;-81
2022/10/10 01:57:59;;;;;;;9.70;8.70;;;;;;;15.49;69.84;95364.22;5075618;28;20642;-79
2022/10/10 02:00:28;;;;;;;10.53;9.40;;;;;;;15.47;69.89;95361.00;5076243;28;20621;-79
2022/10/10 02:03:04;;;;;;;9.93;8.43;;;;;;;15.36;69.79;95349.16;5074817;28;20663;-80
2022/10/10 02:05:38;;;;;;;10.03;9.03;;;;;;;15.50;70.02;95370.97;5073811;28;20186;-79
2022/10/10 02:08:09;;;;;;;9.73;8.73;;;;;;;15.30;69.88;95348.00;5072810;28;20217;-81
2022/10/10 02:10:42;;;;;;;10.40;9.30;;;;;;;15.47;69.93;95377.25;5073379;28;20676;-81
2022/10/10 02:13:12;;;;;;;9.83;8.70;;;;;;;15.43;70.05;95372.56;5072787;28;20190;-81
2022/10/10 02:15:46;;;;;;;10.33;9.33;;;;;;;15.43;70.08;95381.09;5073277;28;20197;-82
2022/10/10 02:18:16;;;;;;;10.63;8.93;;;;;;;15.44;70.08;95387.06;5073741;28;20275;-81
2022/10/10 02:20:45;;;;;;;9.77;8.23;;;;;;;15.39;70.06;95378.97;5073325;28;20191;-81
2022/10/10 02:23:15;;;;;;;10.67;9.33;;;;;;;15.42;70.18;95391.56;5074360;28;20195;-80
2022/10/10 02:25:47;;;;;;;8.93;8.13;;;;;;;15.42;70.22;95386.41;5090772;28;20186;-81
2022/10/10 02:28:21;;;;;;;10.43;9.33;;;;;;;15.39;69.88;95376.41;5082450;28;20238;-82
2022/10/10 02:30:52;;;;;;;8.90;8.00;;;;;;;15.41;70.07;95379.63;5076208;28;20182;-82
2022/10/10 02:33:23;;;;;;;10.03;8.50;;;;;;;15.39;70.17;95384.94;5073391;28;20205;-81
2022/10/10 02:35:53;;;;;;;10.30;9.23;;;;;;;15.39;70.30;95390.09;5073401;28;20190;-81
2022/10/10 02:38:20;;;;;;;10.03;8.87;;;;;;;15.38;70.08;95388.47;5072470;28;20313;-81
2022/10/10 02:40:49;;;;;;;9.60;8.80;;;;;;;15.40;70.09;95396.06;5073107;28;20217;-81
2022/10/10 02:43:19;;;;;;;9.60;8.63;;;;;;;15.39;70.18;95391.88;5072713;28;20977;-80
2022/10/10 02:45:46;;;;;;;9.83;8.63;;;;;;;15.24;70.01;95369.22;5072950;28;20194;-79
2022/10/10 02:48:14;;;;;;;10.30;9.30;;;;;;;15.38;70.16;95391.06;5071949;28;20229;-80
2022/10/10 02:50:41;;;;;;;9.30;8.40;;;;;;;15.37;70.07;95386.03;5072671;28;20186;-79
2022/10/10 02:53:08;;;;;;;12.17;9.30;;;;;;;15.37;70.04;95392.03;5072307;28;20289;-79
2022/10/10 02:55:35;;;;;;;10.77;8.30;;;;;;;15.33;70.08;95377.81;5072551;28;20198;-80
2022/10/10 02:58:02;;;;;;;9.50;8.23;;;;;;;15.38;70.08;95395.41;5072808;28;20190;-82
2022/10/10 03:00:29;;;;;;;10.70;8.60;;;;;;;15.36;70.03;95390.38;5072722;28;20641;-82
2022/10/10 03:02:55;;;;;;;10.37;8.60;;;;;;;15.23;70.04;95380.47;5073926;28;20803;-82
2022/10/10 03:05:24;;;;;;;10.37;8.80;;;;;;;15.35;70.17;95396.50;5072532;28;20186;-83
2022/10/10 03:07:51;;;;;;;9.90;8.17;;;;;;;15.35;70.06;95393.94;5072359;28;20703;-83
2022/10/10 03:10:18;;;;;;;9.30;8.37;;;;;;;15.28;70.18;95382.59;5072518;28;20202;-82
2022/10/10 03:12:45;;;;;;;8.90;8.00;;;;;;;15.30;70.18;95391.00;5072220;28;20707;-81
2022/10/10 03:15:11;;;;;;;9.43;8.37;;;;;;;15.24;70.15;95370.97;5072130;28;20576;-81
2022/10/10 03:17:38;;;;;;;11.33;8.77;;;;;;;15.31;70.07;95385.69;5071739;28;20195;-81
2022/10/10 03:20:07;;;;;;;11.00;8.83;;;;;;;15.22;70.26;95378.03;5071423;28;20563;-82
2022/10/10 03:22:35;;;;;;;10.80;9.23;;;;;;;15.28;70.34;95395.47;5072339;28;20198;-82
2022/10/10 03:25:02;;;;;;;10.13;9.10;;;;;;;15.27;70.17;95399.81;5071683;28;20190;-83
2022/10/10 03:27:28;;;;;;;9.43;8.50;;;;;;;15.26;70.15;95405.13;5071548;28;20764;-83
2022/10/10 03:29:55;;;;;;;9.13;8.33;;;;;;;15.14;70.40;95390.84;5071574;28;20191;-80
2022/10/10 03:32:22;;;;;;;9.77;8.83;;;;;;;15.20;70.30;95398.00;5071151;28;20183;-81
2022/10/10 03:34:49;;;;;;;8.83;8.03;;;;;;;15.15;70.32;95400.19;5071266;28;20183;-81
2022/10/10 03:37:16;;;;;;;10.80;8.60;;;;;;;15.12;70.30;95396.16;5071583;28;20236;-81
2022/10/10 03:39:44;;;;;;;9.73;8.80;;;;;;;15.12;70.40;95397.94;5071936;28;20193;-81
2022/10/10 03:42:11;;;;;;;9.53;8.47;;;;;;;15.13;70.63;95399.56;5071224;28;20182;-81
2022/10/10 03:44:38;;;;;;;10.47;9.07;;;;;;;15.11;70.51;95402.28;5071359;28;20199;-81
2022/10/10 03:47:05;;;;;;;10.07;9.07;;;;;;;15.10;70.55;95403.22;5070435;28;20718;-82
2022/10/10 03:49:32;;;;;;;10.20;9.10;;;;;;;15.09;70.49;95411.09;5071070;28;20194;-81
2022/10/10 03:51:59;;;;;;;11.03;9.13;;;;;;;15.06;70.52;95400.13;5070853;28;20212;-82
2022/10/10 03:54:26;;;;;;;11.33;8.70;;;;;;;15.01;70.63;95398.97;5071565;28;20200;-82
2022/10/10 03:56:54;;;;;;;9.57;8.67;;;;;;;14.99;70.52;95393.97;5071226;28;20194;-83
2022/10/10 03:59:21;;;;;;;9.80;8.80;;;;;;;15.02;70.71;95408.28;5071469;28;20197;-84
2022/10/10 04:01:48;;;;;;;10.03;8.80;;;;;;;14.95;70.55;95391.84;5070919;28;20563;-83
2022/10/10 04:04:15;;;;;;;10.57;9.00;;;;;;;15.00;70.65;95402.50;5072893;28;20194;-80
2022/10/10 04:06:42;;;;;;;9.43;8.33;;;;;;;14.89;70.64;95390.63;5073860;28;20699;-80
2022/10/10 04:09:09;;;;;;;11.20;9.47;;;;;;;14.72;70.69;95366.53;5073766;28;20202;-82
2022/10/10 04:11:37;;;;;;;12.27;9.43;;;;;;;14.96;70.62;95414.84;5073871;28;20191;-81
2022/10/10 04:14:05;;;;;;;10.27;8.33;;;;;;;14.83;70.60;95393.00;5073462;28;20179;-82
2022/10/10 04:16:32;;;;;;;14.00;9.03;;;;;;;14.93;70.91;95411.75;5071623;28;20182;-82
2022/10/10 04:18:59;;;;;;;11.63;9.40;;;;;;;14.91;70.80;95416.25;5071901;28;20190;-81
2022/10/10 04:21:26;;;;;;;10.40;8.47;;;;;;;14.91;70.87;95413.69;5074725;28;20186;-82
2022/10/10 04:23:53;;;;;;;12.10;9.03;;;;;;;14.89;70.75;95411.22;5079850;28;20202;-82
2022/10/10 04:26:20;;;;;;;10.07;9.03;;;;;;;14.76;70.75;95387.59;5082587;28;20194;-83
2022/10/10 04:28:47;;;;;;;11.80;8.77;;;;;;;14.88;70.90;95417.34;5080271;28;20206;-83
2022/10/10 04:31:15;;;;;;;11.97;9.80;;;;;;;14.86;70.71;95408.16;5073418;28;20213;-80
2022/10/10 04:33:42;;;;;;;12.40;10.87;;;;;;;15.12;99.28;95396.16;5071402;28;20198;-86
2022/10/10 04:36:09;;;;;;;11.50;10.40;;;;;;;15.55;98.96;95403.09;5059256;28;20197;-85
2022/10/10 04:38:37;;;;;;;11.33;9.93;;;;;;;15.72;93.29;95405.84;5070002;28;20228;-86
2022/10/10 04:41:03;;;;;;;20.67;9.50;;;;;;;15.78;89.62;95418.91;5073233;28;20204;-81
2022/10/10 04:43:30;;;;;;;15.90;9.90;;;;;;;15.72;87.00;95404.06;5071310;28;20649;-82
2022/10/10 04:45:57;;;;;;;10.77;9.07;;;;;;;15.80;85.44;95416.16;5074483;28;20186;-85
2022/10/10 04:48:26;;;;;;;19.27;9.60;;;;;;;15.78;84.28;95418.91;5080877;28;20707;-84
2022/10/10 04:50:54;;;;;;;16.37;10.27;;;;;;;15.63;83.25;95394.63;5089105;28;20166;-86
2022/10/10 04:53:21;;;;;;;19.87;9.43;;;;;;;15.58;82.34;95389.09;5078956;28;20226;-82
2022/10/10 04:55:48;;;;;;;10.27;9.20;;;;;;;15.74;81.83;95421.94;5058391;28;20190;-88
2022/10/10 04:58:15;;;;;;;15.03;9.47;;;;;;;15.73;81.25;95418.56;5052093;28;20187;-80
2022/10/10 05:00:42;;;;;;;14.17;10.37;;;;;;;15.71;80.67;95415.31;5057749;28;20206;-83
2022/10/10 05:03:10;;;;;;;12.50;11.20;;;;;;;15.77;80.25;95426.81;5071331;28;20640;-84
2022/10/10 05:05:39;;;;;;;14.03;10.50;;;;;;;15.79;79.79;95428.25;5070469;28;20202;-80
2022/10/10 05:08:06;;;;;;;12.77;10.70;;;;;;;15.83;79.36;95433.94;5070363;28;20213;-84
2022/10/10 05:10:36;;;;;;;17.00;11.70;;;;;;;15.89;78.73;95428.19;5070264;28;20218;-78
2022/10/10 05:13:03;;;;;;;17.33;11.70;;;;;;;15.92;78.36;95427.06;5076811;28;20212;-81
2022/10/10 05:15:31;;;;;;;15.07;10.97;;;;;;;16.00;78.03;95427.91;5078029;28;20194;-80
2022/10/10 05:17:57;;;;;;;15.97;11.77;;;;;;;16.07;77.57;95435.88;5079946;28;20263;-80
2022/10/10 05:20:24;;;;;;;13.97;11.60;;;;;;;16.15;76.96;95429.91;5076747;28;20699;-83
2022/10/10 05:22:52;;;;;;;16.07;11.50;;;;;;;16.22;76.43;95433.50;5070447;28;20186;-80
2022/10/10 05:25:20;;;;;;;19.97;12.27;;;;;;;16.37;75.85;95446.66;5070009;28;20669;-79
2022/10/10 05:27:46;;;;;;;14.80;11.23;;;;;;;16.47;75.23;95437.81;5069321;28;20248;-79
2022/10/10 05:30:14;;;;;;;18.43;11.63;;;;;;;16.63;75.36;95442.25;5070842;28;20222;-80
2022/10/10 05:32:41;;;;;;;15.47;12.17;;;;;;;16.83;74.38;95442.00;5081320;28;20202;-80
2022/10/10 05:35:28;;;;;;;14.47;10.97;;;;;;;17.10;74.90;95446.91;5077775;28;20662;-79
2022/10/10 05:37:56;;;;;;;14.23;11.20;;;;;;;17.39;75.14;95448.22;5069356;28;20260;-80
2022/10/10 05:40:23;;;;;;;14.77;11.23;;;;;;;17.70;74.94;95450.97;5066389;28;20201;-82
2022/10/10 05:42:49;;;;;;;15.97;11.27;;;;;;;18.03;74.47;95457.75;5065594;28;20198;-82
2022/10/10 05:45:17;;;;;;;19.43;11.33;;;;;;;18.34;73.74;95451.84;5066702;28;20615;-80
2022/10/10 05:47:44;;;;;;;15.43;11.57;;;;;;;18.72;73.01;95455.47;5069037;28;20222;-80
2022/10/10 05:50:25;;;;;;;16.23;11.73;;;;;;;19.01;72.04;95449.63;5069049;28;20198;-81
2022/10/10 05:52:52;;;;;;;11.83;9.73;;;;;;;19.52;71.19;95468.13;5069254;28;20197;-82
2022/10/10 05:55:20;;;;;;;15.53;10.47;;;;;;;19.95;70.16;95465.84;5069115;28;20199;-79
2022/10/10 05:57:47;;;;;;;19.13;10.97;;;;;;;20.36;69.05;95459.41;5063767;28;20206;-82
2022/10/10 06:00:14;;;;;;;13.20;10.13;;;;;;;20.87;67.87;95470.69;5066115;28;20193;-78
2022/10/10 06:02:41;;;;;;;16.33;10.47;;;;;;;21.30;66.84;95468.97;5066280;28;20190;-79
2022/10/10 06:05:09;;;;;;;19.08;10.90;;;;;;;21.82;65.76;95487.91;5061199;28;20914;-79
2022/10/10 06:07:37;;;;;;;15.07;11.05;;;;;;;22.21;64.71;95474.38;5065925;28;21061;-79
2022/10/10 06:10:05;;;;;;;18.80;11.25;;;;;;;22.57;63.34;95468.19;5068432;28;20252;-78
2022/10/10 06:12:33;;;;;;;13.88;10.65;;;;;;;23.04;62.39;95487.47;5072143;28;20194;-78
2022/10/10 06:15:00;;;;;;;13.27;9.90;;;;;;;23.31;61.46;95467.47;5067349;28;20657;-79
2022/10/10 06:17:27;;;;;;;14.15;11.27;;;;;;;23.76;60.17;95484.25;5069389;28;20233;-79
2022/10/10 06:19:53;;;;;;;16.08;10.48;;;;;;;24.14;59.62;95488.06;5073231;28;20194;-80
2022/10/10 06:22:23;;;;;;;13.00;11.10;;;;;;;24.53;58.45;95490.66;5071869;28;20190;-79
2022/10/10 06:24:50;;;;;;;13.95;9.98;;;;;;;24.89;57.54;95491.94;5072324;28;20186;-79
2022/10/10 06:27:17;;;;;;;16.48;10.35;;;;;;;25.22;56.75;95493.66;5071028;28;20222;-78
2022/10/10 06:29:45;;;;;;;15.40;10.20;;;;;;;25.51;56.01;95495.69;5069414;28;20202;-78
2022/10/10 06:32:12;;;;;;;10.93;9.80;;;;;;;25.79;55.20;95494.53;5069570;28;20197;-82
2022/10/10 06:34:41;;;;;;;14.48;10.63;;;;;;;26.01;54.48;95494.97;5071984;28;20199;-79
2022/10/10 06:37:11;;;;;;;12.40;9.85;;;;;;;26.18;54.00;95490.00;5071923;28;20222;-80
2022/10/10 06:39:38;;;;;;;12.00;10.23;;;;;;;26.40;53.63;95500.88;5071520;28;20201;-79
2022/10/10 06:42:07;;;;;;;15.88;10.25;;;;;;;26.58;53.23;95500.13;5071319;28;20669;-80
2022/10/10 06:44:34;;;;;;;13.65;10.40;;;;;;;26.64;52.56;95489.59;5071009;28;20301;-79
2022/10/10 06:47:02;;;;;;;14.75;9.82;;;;;;;26.83;52.51;95506.13;5071698;28;20545;-80
2022/10/10 06:49:29;;;;;;;15.02;10.77;;;;;;;26.95;51.92;95506.19;5071219;28;20222;-81
2022/10/10 06:51:55;;;;;;;12.40;10.45;;;;;;;27.07;51.50;95503.63;5071740;28;20593;-80
2022/10/10 06:54:22;;;;;;;15.48;10.35;;;;;;;27.21;51.37;95502.47;5071246;28;20206;-80
2022/10/10 06:56:49;;;;;;;13.65;9.75;;;;;;;27.27;50.57;95506.84;5071940;28;20313;-81
2022/10/10 06:59:16;;;;;;;12.32;9.88;;;;;;;27.26;50.76;95497.34;5071460;28;20195;-78
2022/10/10 07:01:43;;;;;;;12.02;10.45;;;;;;;27.40;50.64;95511.91;5071510;28;20201;-81
2022/10/10 07:04:27;;;;;;;11.30;10.15;;;;;;;27.43;50.35;95508.84;5071191;28;20198;-80
2022/10/10 07:06:54;;;;;;;13.05;10.10;;;;;;;27.50;50.06;95504.31;5071456;28;20206;-80
2022/10/10 07:09:20;;;;;;;14.00;9.57;;;;;;;27.59;49.25;95506.59;5071261;28;20217;-80
2022/10/10 07:11:47;;;;;;;11.40;9.50;;;;;;;27.71;49.42;95507.44;5069085;28;20201;-80
2022/10/10 07:14:14;;;;;;;13.98;9.60;;;;;;;27.80;49.30;95506.13;5071292;28;20592;-78
2022/10/10 07:16:41;;;;;;;14.70;10.23;;;;;;;27.91;48.99;95512.44;5070812;28;20205;-78
2022/10/10 07:19:08;;;;;;;15.15;10.48;;;;;;;27.98;48.44;95505.25;5071496;28;20204;-80
2022/10/10 07:21:36;;;;;;;14.65;9.98;;;;;;;28.04;48.78;95506.16;5070899;28;20198;-81
2022/10/10 07:24:03;;;;;;;12.13;9.30;;;;;;;28.05;48.61;95499.88;5071898;28;20210;-81
2022/10/10 07:26:35;;;;;;;13.82;9.35;;;;;;;28.13;48.34;95512.69;5071622;28;20190;-81
2022/10/10 07:29:02;;;;;;;14.63;9.93;;;;;;;28.17;48.18;95503.31;5071531;28;20253;-77
2022/10/10 07:31:29;;;;;;;10.55;9.13;;;;;;;28.23;48.30;95505.03;5076151;28;20253;-79
2022/10/10 07:33:56;;;;;;;11.45;9.07;;;;;;;28.30;47.49;95499.66;5076614;28;20201;-78
2022/10/10 07:36:23;;;;;;;11.00;9.48;;;;;;;28.32;47.48;95503.66;5080928;28;20193;-79
2022/10/10 07:38:53;;;;;;;11.57;9.63;;;;;;;28.23;47.60;95476.88;5078012;28;20241;-80
2022/10/10 07:41:21;;;;;;;14.07;9.57;;;;;;;28.25;47.45;95480.09;5075373;28;20210;-80
2022/10/10 07:43:48;;;;;;;13.00;10.35;;;;;;;28.38;47.42;95497.53;5076074;28;20202;-79
2022/10/10 07:46:18;;;;;;;12.32;9.93;;;;;;;28.34;47.40;95485.81;5076511;28;20193;-78
2022/10/10 07:48:45;;;;;;;13.05;9.68;;;;;;;28.30;47.79;95476.00;5076333;28;20229;-79
2022/10/10 07:51:12;;;;;;;11.52;9.38;;;;;;;28.39;47.48;95493.06;5075235;28;20183;-79
2022/10/10 07:53:40;;;;;;;10.35;9.25;;;;;;;28.36;47.08;95488.25;5076858;28;20198;-78
2022/10/10 07:56:09;;;;;;;13.93;8.98;;;;;;;28.40;47.43;95492.81;5078921;28;20296;-79
2022/10/10 07:58:37;;;;;;;17.30;9.90;;;;;;;28.39;47.21;95491.22;5073350;28;20191;-78
2022/10/10 08:01:05;;;;;;;11.80;9.43;;;;;;;28.36;47.33;95483.78;5081403;28;20186;-79
2022/10/10 08:03:32;;;;;;;16.75;9.25;;;;;;;28.32;46.97;95487.88;5083985;28;20204;-83
2022/10/10 08:06:03;;;;;;;15.02;10.32;;;;;;;28.23;46.89;95483.97;5084047;28;20197;-82
2022/10/10 08:08:30;;;;;;;14.45;9.95;;;;;;;28.20;46.84;95485.25;5075669;28;20222;-81
2022/10/10 08:10:57;;;;;;;11.48;9.88;;;;;;;28.06;46.78;95467.28;5072771;28;20206;-80
2022/10/10 08:13:25;;;;;;;23.63;10.43;;;;;;;28.13;46.74;95481.13;5071897;28;20642;-80
2022/10/10 08:15:53;;;;;;;12.70;9.70;;;;;;;28.08;46.46;95487.06;5070987;28;20195;-80
2022/10/10 08:18:20;;;;;;;12.43;9.23;;;;;;;28.09;46.64;95486.03;5070725;28;20198;-78
2022/10/10 08:20:47;;;;;;;14.18;9.57;;;;;;;28.08;46.62;95489.72;5069745;28;20194;-80
2022/10/10 08:23:14;;;;;;;15.48;8.98;;;;;;;28.08;46.36;95484.44;5070296;28;20190;-78
2022/10/10 08:25:41;;;;;;;11.90;9.07;;;;;;;28.09;46.06;95486.03;5070190;28;20676;-79
2022/10/10 08:28:08;;;;;;;10.18;8.55;;;;;;;28.04;46.14;95475.41;5070458;28;20244;-80
2022/10/10 08:30:40;;;;;;;12.27;8.95;;;;;;;28.09;45.94;95480.78;5068714;28;20178;-83
2022/10/10 08:33:07;;;;;;;11.65;8.40;;;;;;;28.08;46.32;95487.06;5068567;28;20190;-80
2022/10/10 08:35:37;;;;;;;11.30;8.60;;;;;;;28.08;46.29;95481.03;5067373;28;20210;-79
2022/10/10 08:38:04;;;;;;;14.73;9.55;;;;;;;28.07;46.04;95482.84;5065094;28;20226;-81
2022/10/10 08:40:31;;;;;;;10.18;8.63;;;;;;;28.07;46.13;95484.69;5069918;28;20555;-78
2022/10/10 08:43:03;;;;;;;15.93;9.60;;;;;;;28.01;45.73;95479.28;5069435;28;20202;-78
2022/10/10 08:45:33;;;;;;;12.05;8.75;;;;;;;28.01;45.87;95481.91;5067187;28;20240;-80
2022/10/10 08:48:05;;;;;;;10.07;8.55;;;;;;;27.99;45.84;95493.72;5069658;28;20218;-78
2022/10/10 08:50:36;;;;;;;16.40;7.90;;;;;;;27.96;45.52;95486.25;5069399;28;20190;-80
2022/10/10 08:53:09;;;;;;;12.38;8.38;;;;;;;27.93;45.90;95486.69;5068463;28;20194;-79
2022/10/10 08:55:39;;;;;;;9.68;8.05;;;;;;;27.88;45.63;95486.59;5068969;28;20195;-80
2022/10/10 08:58:11;;;;;;;14.68;8.73;;;;;;;27.80;45.57;95479.03;5066738;28;20193;-81
2022/10/10 09:00:44;;;;;;;10.65;7.78;;;;;;;27.79;45.70;95495.84;5067318;28;20198;-80
2022/10/10 09:03:22;;;;;;;12.05;8.05;;;;;;;27.72;46.05;95488.88;5069439;28;20201;-79
2022/10/10 09:06:05;;;;;;;11.35;8.32;;;;;;;27.66;45.66;95488.91;5064504;28;20201;-79
2022/10/10 09:08:44;;;;;;;11.35;7.88;;;;;;;27.64;45.60;95497.03;5068371;28;20416;-79
2022/10/10 09:11:23;;;;;;;17.88;7.90;;;;;;;27.59;45.89;95496.09;5069394;28;20190;-78
2022/10/10 09:14:01;;;;;;;13.07;8.63;;;;;;;27.51;46.18;95492.78;5068999;28;20612;-78
2022/10/10 09:16:38;;;;;;;10.93;7.72;;;;;;;27.50;45.70;95498.22;5067850;28;20216;-79
2022/10/10 09:19:23;;;;;;;13.55;8.35;;;;;;;27.45;45.92;95506.00;5068679;28;20174;-79
2022/10/10 09:21:53;;;;;;;11.95;8.40;;;;;;;27.39;45.89;95506.88;5068439;28;20206;-79
2022/10/10 09:24:24;;;;;;;16.10;7.97;;;;;;;27.33;45.99;95505.13;5069286;28;20198;-78
2022/10/10 09:26:56;;;;;;;7.45;6.40;;;;;;;27.30;46.00;95509.03;5068932;28;20179;-79
2022/10/10 09:29:30;;;;;;;13.85;7.28;;;;;;;27.27;46.33;95509.47;5069032;28;20226;-79
2022/10/10 09:32:02;;;;;;;9.68;6.80;;;;;;;27.23;46.21;95508.28;5068373;28;20197;-78
2022/10/10 09:34:38;;;;;;;8.10;6.38;;;;;;;27.08;46.07;95490.28;5074247;28;20205;-77
2022/10/10 09:37:14;;;;;;;12.38;6.88;;;;;;;27.10;46.25;95513.72;5079791;28;20225;-79
2022/10/10 09:39:46;;;;;;;10.10;6.53;;;;;;;27.04;46.02;95514.59;5070498;28;20186;-78
2022/10/10 09:42:15;;;;;;;11.18;6.22;;;;;;;26.98;45.88;95506.53;5069878;28;20194;-78
2022/10/10 09:44:43;;;;;;;8.18;5.95;;;;;;;26.92;46.32;95511.88;5072059;28;20603;-85
2022/10/10 09:47:12;;;;;;;11.40;6.25;;;;;;;26.86;46.63;95510.16;5073366;28;20194;-78
2022/10/10 09:49:41;;;;;;;9.68;6.05;;;;;;;26.83;46.13;95506.13;5069745;28;20230;-80
2022/10/10 09:52:23;;;;;;;7.80;5.88;;;;;;;26.77;46.05;95504.38;5072355;28;20664;-81
2022/10/10 09:54:51;;;;;;;9.23;5.22;;;;;;;26.71;45.88;95503.41;5074916;28;20197;-80
2022/10/10 09:57:26;;;;;;;7.88;5.72;;;;;;;26.63;45.99;95505.53;5073412;28;20198;-79
2022/10/10 09:59:53;;;;;;;7.20;6.05;;;;;;;26.60;46.06;95500.72;5075606;28;20201;-78
2022/10/10 10:02:21;;;;;;;7.38;5.47;;;;;;;26.51;46.37;95500.19;5075417;28;20190;-80
2022/10/10 10:04:51;;;;;;;6.28;5.07;;;;;;;26.41;46.24;95484.91;5073487;28;20199;-79
2022/10/10 10:07:21;;;;;;;7.97;5.38;;;;;;;26.42;45.98;95498.84;5074390;28;20202;-78
2022/10/10 10:09:50;;;;;;;7.55;5.38;;;;;;;26.34;46.43;95492.06;5072872;28;20218;-79
2022/10/10 10:12:22;;;;;;;7.90;5.45;;;;;;;26.28;46.17;95498.16;5073231;28;20291;-79
2022/10/10 10:14:50;;;;;;;13.02;6.32;;;;;;;26.22;46.51;95496.41;5072557;28;20595;-79
2022/10/10 10:17:23;;;;;;;6.60;5.28;;;;;;;26.16;46.20;95489.41;5073151;28;20198;-80
2022/10/10 10:19:51;;;;;;;5.75;4.97;;;;;;;26.01;46.61;95474.00;5075190;28;20228;-78
2022/10/10 10:22:30;;;;;;;9.07;5.50;;;;;;;26.07;46.35;95485.44;5081676;28;20194;-80
2022/10/10 10:24:57;;;;;;;6.38;5.15;;;;;;;26.11;46.28;95489.25;5079675;28;20202;-80
2022/10/10 10:27:26;;;;;;;9.00;6.05;;;;;;;26.10;46.48;95485.03;5079092;28;20190;-80
2022/10/10 10:29:54;;;;;;;8.95;5.35;;;;;;;26.16;46.52;95484.16;5075108;28;20218;-83
2022/10/10 10:32:40;;;;;;;5.72;5.00;;;;;;;26.18;46.62;95482.13;5072893;28;20195;-78
2022/10/10 10:35:24;;;;;;;7.75;4.82;;;;;;;26.19;46.11;95488.97;5072003;28;20202;-80
2022/10/10 10:38:02;;;;;;;5.32;4.82;;;;;;;26.19;46.05;95479.28;5071854;28;20226;-79
2022/10/10 10:40:34;;;;;;;7.63;5.00;;;;;;;26.19;46.34;95474.03;5071729;28;20209;-80
2022/10/10 10:43:25;;;;;;;5.30;4.80;;;;;;;26.20;46.05;95473.00;5071743;28;20232;-78
2022/10/10 10:46:03;;;;;;;5.82;5.32;;;;;;;26.18;46.32;95475.06;5071549;28;20194;-79
2022/10/10 10:48:39;;;;;;;7.03;5.15;;;;;;;26.15;46.29;95477.31;5071151;28;20182;-79
2022/10/10 10:51:34;;;;;;;8.45;5.43;;;;;;;26.11;46.45;95479.56;5071677;28;20194;-79
2022/10/10 10:54:11;;;;;;;5.28;4.80;;;;;;;26.02;46.67;95465.91;5071557;28;20357;-79
2022/10/10 10:56:46;;;;;;;6.55;5.05;;;;;;;25.97;46.37;95478.06;5070216;28;20286;-80
2022/10/10 10:59:36;;;;;;;7.07;4.47;;;;;;;25.89;46.35;95473.09;5071674;28;20213;-80
2022/10/10 11:02:20;;;;;;;5.60;5.00;;;;;;;25.76;46.38;95461.69;5071286;28;20205;-80
2022/10/10 11:05:00;;;;;;;7.43;4.97;;;;;;;25.52;46.66;95428.41;5069490;28;20201;-79
2022/10/10 11:07:33;;;;;;;5.75;5.18;;;;;;;25.43;46.93;95416.56;5071459;28;20199;-80
2022/10/10 11:10:08;;;;;;;5.75;4.63;;;;;;;25.55;47.00;95435.03;5071039;28;20226;-80
2022/10/10 11:12:53;;;;;;;6.32;5.00;;;;;;;25.48;47.02;95432.47;5071247;28;20190;-80
2022/10/10 11:15:26;;;;;;;8.27;4.70;;;;;;;25.46;47.24;95444.94;5069570;28;20628;-79
2022/10/10 11:18:00;;;;;;;7.07;5.18;;;;;;;25.37;47.12;95435.75;5071421;28;20187;-79
2022/10/10 11:20:32;;;;;;;6.78;4.57;;;;;;;25.33;47.33;95443.22;5071190;28;20198;-80
2022/10/10 11:23:05;;;;;;;7.88;4.93;;;;;;;25.27;47.31;95441.47;5070173;28;20572;-79
2022/10/10 11:25:36;;;;;;;6.68;4.68;;;;;;;25.21;47.40;95450.13;5071711;28;20256;-80
2022/10/10 11:28:10;;;;;;;9.73;5.60;;;;;;;25.08;47.43;95435.31;5071773;28;20198;-80
2022/10/10 11:30:42;;;;;;;5.00;4.60;;;;;;;25.06;47.30;95432.06;5071323;28;20226;-78
2022/10/10 11:33:16;;;;;;;5.30;4.85;;;;;;;24.97;47.33;95422.88;5069173;28;20193;-82
2022/10/10 11:35:46;;;;;;;5.60;4.43;;;;;;;25.00;47.51;95422.47;5072082;28;20203;-79
2022/10/10 11:38:23;;;;;;;8.70;5.05;;;;;;;24.95;47.27;95417.03;5073050;28;20222;-78
2022/10/10 11:40:54;;;;;;;12.43;4.20;;;;;;;24.96;47.34;95416.03;5070944;28;20201;-78